sensor_id;sensor_type;location;lat;lon;timestamp;pressure;altitude;pressure_sealevel;temperature;humidity
46682;BME280;34101;53.430;-2.224;2022-07-29T00:00:07;157293.59;;;19.36;61.81
46682;BME280;34101;53.430;-2.224;2022-07-29T00:02:35;157297.24;;;19.38;61.69
46682;BME280;34101;53.430;-2.224;2022-07-29T00:05:04;157293.26;;;19.36;61.17
46682;BME280;34101;53.430;-2.224;2022-07-29T00:07:32;157285.30;;;19.33;61.44
46682;BME280;34101;53.430;-2.224;2022-07-29T00:09:59;157296.02;;;19.37;61.02
46682;BME280;34101;53.430;-2.224;2022-07-29T00:12:26;157299.19;;;19.39;60.78
46682;BME280;34101;53.430;-2.224;2022-07-29T00:14:55;157289.52;;;19.35;60.65
46682;BME280;34101;53.430;-2.224;2022-07-29T00:17:22;157295.13;;;19.37;60.54
46682;BME280;34101;53.430;-2.224;2022-07-29T00:19:49;157298.54;;;19.38;60.80
46682;BME280;34101;53.430;-2.224;2022-07-29T00:22:17;157292.77;;;19.36;60.37
46682;BME280;34101;53.430;-2.224;2022-07-29T00:24:44;157293.10;;;19.36;60.57
46682;BME280;34101;53.430;-2.224;2022-07-29T00:27:12;157274.09;;;19.29;60.61
46682;BME280;34101;53.430;-2.224;2022-07-29T00:29:39;157279.37;;;19.31;60.77
46682;BME280;34101;53.430;-2.224;2022-07-29T00:32:07;157274.82;;;19.29;60.42
46682;BME280;34101;53.430;-2.224;2022-07-29T00:34:34;157257.84;;;19.22;60.37
46682;BME280;34101;53.430;-2.224;2022-07-29T00:37:02;157264.90;;;19.25;60.00
46682;BME280;34101;53.430;-2.224;2022-07-29T00:39:29;157259.46;;;19.23;60.47
46682;BME280;34101;53.430;-2.224;2022-07-29T00:41:56;157253.77;;;19.20;60.08
46682;BME280;34101;53.430;-2.224;2022-07-29T00:44:24;157243.05;;;19.16;60.19
46682;BME280;34101;53.430;-2.224;2022-07-29T00:46:52;157239.23;;;19.15;60.10
46682;BME280;34101;53.430;-2.224;2022-07-29T00:49:19;157241.10;;;19.15;59.81
46682;BME280;34101;53.430;-2.224;2022-07-29T00:51:48;157238.09;;;19.14;59.97
46682;BME280;34101;53.430;-2.224;2022-07-29T00:54:16;157227.21;;;19.10;59.82
46682;BME280;34101;53.430;-2.224;2022-07-29T00:56:44;157204.86;;;19.01;59.60
46682;BME280;34101;53.430;-2.224;2022-07-29T00:59:11;157211.61;;;19.04;59.64
46682;BME280;34101;53.430;-2.224;2022-07-29T01:01:39;157205.03;;;19.01;59.33
46682;BME280;34101;53.430;-2.224;2022-07-29T01:04:06;157212.34;;;19.04;59.17
46682;BME280;34101;53.430;-2.224;2022-07-29T01:06:35;157217.21;;;19.06;58.51
46682;BME280;34101;53.430;-2.224;2022-07-29T01:11:07;157209.09;;;19.03;58.90
46682;BME280;34101;53.430;-2.224;2022-07-29T01:13:36;157203.08;;;19.00;58.46
46682;BME280;34101;53.430;-2.224;2022-07-29T01:16:09;157200.15;;;18.99;58.41
46682;BME280;34101;53.430;-2.224;2022-07-29T01:18:41;157199.75;;;18.99;58.46
46682;BME280;34101;53.430;-2.224;2022-07-29T01:21:31;157180.57;;;18.91;58.30
46682;BME280;34101;53.430;-2.224;2022-07-29T01:24:14;157188.62;;;18.94;58.40
46682;BME280;34101;53.430;-2.224;2022-07-29T01:26:50;157172.61;;;18.88;58.27
46682;BME280;34101;53.430;-2.224;2022-07-29T01:29:24;157179.03;;;18.90;58.33
46682;BME280;34101;53.430;-2.224;2022-07-29T01:31:57;157177.41;;;18.90;58.42
46682;BME280;34101;53.430;-2.224;2022-07-29T01:34:35;157177.81;;;18.90;58.24
46682;BME280;34101;53.430;-2.224;2022-07-29T01:37:10;157167.09;;;18.86;58.25
46682;BME280;34101;53.430;-2.224;2022-07-29T01:39:41;157173.10;;;18.88;58.49
46682;BME280;34101;53.430;-2.224;2022-07-29T01:42:15;157174.97;;;18.89;58.21
46682;BME280;34101;53.430;-2.224;2022-07-29T01:44:54;157169.12;;;18.87;58.01
46682;BME280;34101;53.430;-2.224;2022-07-29T01:47:26;157156.77;;;18.82;58.19
46682;BME280;34101;53.430;-2.224;2022-07-29T01:49:58;157158.15;;;18.82;57.91
46682;BME280;34101;53.430;-2.224;2022-07-29T01:52:33;157154.17;;;18.81;58.04
46682;BME280;34101;53.430;-2.224;2022-07-29T01:55:07;157145.32;;;18.77;57.84
46682;BME280;34101;53.430;-2.224;2022-07-29T01:57:38;157142.72;;;18.76;57.74
46682;BME280;34101;53.430;-2.224;2022-07-29T02:00:08;157131.10;;;18.71;57.42
46682;BME280;34101;53.430;-2.224;2022-07-29T02:02:38;157105.68;;;18.61;57.42
46682;BME280;34101;53.430;-2.224;2022-07-29T02:05:07;157107.06;;;18.62;57.36
46682;BME280;34101;53.430;-2.224;2022-07-29T02:07:37;157125.34;;;18.69;57.25
46682;BME280;34101;53.430;-2.224;2022-07-29T02:10:08;157125.91;;;18.69;56.98
46682;BME280;34101;53.430;-2.224;2022-07-29T02:12:38;157123.71;;;18.68;56.97
46682;BME280;34101;53.430;-2.224;2022-07-29T02:15:07;157132.08;;;18.72;56.74
46682;BME280;34101;53.430;-2.224;2022-07-29T02:17:44;157130.45;;;18.71;56.47
46682;BME280;34101;53.430;-2.224;2022-07-29T02:20:13;157122.49;;;18.68;56.68
46682;BME280;34101;53.430;-2.224;2022-07-29T02:22:41;157108.60;;;18.62;56.46
46682;BME280;34101;53.430;-2.224;2022-07-29T02:25:12;157101.38;;;18.59;56.53
46682;BME280;34101;53.430;-2.224;2022-07-29T02:27:41;157109.34;;;18.63;56.58
46682;BME280;34101;53.430;-2.224;2022-07-29T02:30:09;157117.46;;;18.66;56.60
46682;BME280;34101;53.430;-2.224;2022-07-29T02:32:40;157125.99;;;18.69;56.44
46682;BME280;34101;53.430;-2.224;2022-07-29T02:35:09;157123.63;;;18.68;56.58
46682;BME280;34101;53.430;-2.224;2022-07-29T02:37:37;157135.57;;;18.73;56.55
46682;BME280;34101;53.430;-2.224;2022-07-29T02:40:09;157120.14;;;18.67;56.43
46682;BME280;34101;53.430;-2.224;2022-07-29T02:42:38;157128.10;;;18.70;56.06
46682;BME280;34101;53.430;-2.224;2022-07-29T02:45:10;157114.70;;;18.65;56.41
46682;BME280;34101;53.430;-2.224;2022-07-29T02:47:42;157134.03;;;18.72;56.52
46682;BME280;34101;53.430;-2.224;2022-07-29T02:50:15;157140.04;;;18.75;56.61
46682;BME280;34101;53.430;-2.224;2022-07-29T02:52:56;157146.70;;;18.78;56.54
46682;BME280;34101;53.430;-2.224;2022-07-29T02:55:28;157153.52;;;18.80;57.22
46682;BME280;34101;53.430;-2.224;2022-07-29T02:58:00;157150.76;;;18.79;56.25
46682;BME280;34101;53.430;-2.224;2022-07-29T03:00:29;157141.42;;;18.75;56.38
46682;BME280;34101;53.430;-2.224;2022-07-29T03:02:59;157145.89;;;18.77;56.22
46682;BME280;34101;53.430;-2.224;2022-07-29T03:05:31;157149.62;;;18.79;56.85
46682;BME280;34101;53.430;-2.224;2022-07-29T03:08:01;157156.04;;;18.81;57.20
46682;BME280;34101;53.430;-2.224;2022-07-29T03:10:30;157155.23;;;18.81;56.64
46682;BME280;34101;53.430;-2.224;2022-07-29T03:12:58;157153.52;;;18.80;57.10
46682;BME280;34101;53.430;-2.224;2022-07-29T03:15:27;157144.83;;;18.77;57.45
46682;BME280;34101;53.430;-2.224;2022-07-29T03:17:55;157109.42;;;18.63;57.92
46682;BME280;34101;53.430;-2.224;2022-07-29T03:20:22;157046.88;;;18.37;59.97
46682;BME280;34101;53.430;-2.224;2022-07-29T03:22:49;156964.29;;;18.04;60.60
46682;BME280;34101;53.430;-2.224;2022-07-29T03:25:18;156847.14;;;17.57;63.40
46682;BME280;34101;53.430;-2.224;2022-07-29T03:27:47;156815.40;;;17.45;65.39
46682;BME280;34101;53.430;-2.224;2022-07-29T03:30:15;156800.95;;;17.39;67.16
46682;BME280;34101;53.430;-2.224;2022-07-29T03:32:42;156779.93;;;17.30;69.34
46682;BME280;34101;53.430;-2.224;2022-07-29T03:35:09;156771.49;;;17.27;69.46
46682;BME280;34101;53.430;-2.224;2022-07-29T03:37:36;156761.02;;;17.23;70.47
46682;BME280;34101;53.430;-2.224;2022-07-29T03:40:07;156744.95;;;17.16;71.10
46682;BME280;34101;53.430;-2.224;2022-07-29T03:42:39;156738.13;;;17.14;72.82
46682;BME280;34101;53.430;-2.224;2022-07-29T03:45:12;156706.81;;;17.01;71.68
46682;BME280;34101;53.430;-2.224;2022-07-29T03:47:47;156693.26;;;16.96;73.14
46682;BME280;34101;53.430;-2.224;2022-07-29T03:50:16;156678.49;;;16.90;73.17
46682;BME280;34101;53.430;-2.224;2022-07-29T03:52:44;156663.07;;;16.84;73.93
46682;BME280;34101;53.430;-2.224;2022-07-29T03:55:11;156654.22;;;16.80;73.26
46682;BME280;34101;53.430;-2.224;2022-07-29T03:57:39;156659.01;;;16.82;74.28
46682;BME280;34101;53.430;-2.224;2022-07-29T04:00:08;156674.02;;;16.88;74.51
46682;BME280;34101;53.430;-2.224;2022-07-29T04:02:36;156692.85;;;16.95;75.15
46682;BME280;34101;53.430;-2.224;2022-07-29T04:05:05;156694.55;;;16.96;73.92
46682;BME280;34101;53.430;-2.224;2022-07-29T04:07:31;156684.25;;;16.92;73.71
46682;BME280;34101;53.430;-2.224;2022-07-29T04:09:59;156702.59;;;16.99;73.19
46682;BME280;34101;53.430;-2.224;2022-07-29T04:12:26;156704.62;;;17.00;73.23
46682;BME280;34101;53.430;-2.224;2022-07-29T04:14:54;156715.57;;;17.05;73.04
46682;BME280;34101;53.430;-2.224;2022-07-29T04:17:21;156706.73;;;17.01;72.62
46682;BME280;34101;53.430;-2.224;2022-07-29T04:19:49;156686.03;;;16.93;72.18
46682;BME280;34101;53.430;-2.224;2022-07-29T04:22:16;156616.41;;;16.65;74.84
46682;BME280;34101;53.430;-2.224;2022-07-29T04:24:44;156557.03;;;16.41;76.15
46682;BME280;34101;53.430;-2.224;2022-07-29T04:27:11;156524.74;;;16.28;77.97
46682;BME280;34101;53.430;-2.224;2022-07-29T04:29:39;156514.36;;;16.24;77.80
46682;BME280;34101;53.430;-2.224;2022-07-29T04:32:06;156544.86;;;16.36;78.84
46682;BME280;34101;53.430;-2.224;2022-07-29T04:34:33;156538.77;;;16.34;78.89
46682;BME280;34101;53.430;-2.224;2022-07-29T04:37:01;156542.26;;;16.35;78.25
46682;BME280;34101;53.430;-2.224;2022-07-29T04:39:28;156526.61;;;16.29;78.09
46682;BME280;34101;53.430;-2.224;2022-07-29T04:41:56;156520.52;;;16.26;77.38
46682;BME280;34101;53.430;-2.224;2022-07-29T04:44:23;156509.00;;;16.22;77.81
46682;BME280;34101;53.430;-2.224;2022-07-29T04:46:50;156524.42;;;16.28;77.54
46682;BME280;34101;53.430;-2.224;2022-07-29T04:49:18;156542.26;;;16.35;77.83
46682;BME280;34101;53.430;-2.224;2022-07-29T04:51:45;156527.26;;;16.29;78.29
46682;BME280;34101;53.430;-2.224;2022-07-29T04:54:13;156515.66;;;16.24;79.09
46682;BME280;34101;53.430;-2.224;2022-07-29T04:56:40;156492.54;;;16.15;79.45
46682;BME280;34101;53.430;-2.224;2022-07-29T04:59:07;156473.40;;;16.07;79.04
46682;BME280;34101;53.430;-2.224;2022-07-29T05:01:35;156513.06;;;16.23;79.87
46682;BME280;34101;53.430;-2.224;2022-07-29T05:04:03;156510.22;;;16.22;79.37
46682;BME280;34101;53.430;-2.224;2022-07-29T05:06:30;156517.44;;;16.25;79.01
46682;BME280;34101;53.430;-2.224;2022-07-29T05:08:57;156524.66;;;16.28;78.73
46682;BME280;34101;53.430;-2.224;2022-07-29T05:11:25;156554.92;;;16.40;78.62
46682;BME280;34101;53.430;-2.224;2022-07-29T05:13:52;156572.68;;;16.47;78.51
46682;BME280;34101;53.430;-2.224;2022-07-29T05:16:20;156596.54;;;16.57;78.23
46682;BME280;34101;53.430;-2.224;2022-07-29T05:18:47;156595.89;;;16.57;78.10
46682;BME280;34101;53.430;-2.224;2022-07-29T05:21:14;156634.67;;;16.72;78.29
46682;BME280;34101;53.430;-2.224;2022-07-29T05:23:42;156650.82;;;16.79;77.62
46682;BME280;34101;53.430;-2.224;2022-07-29T05:26:09;156640.27;;;16.74;77.38
46682;BME280;34101;53.430;-2.224;2022-07-29T05:28:37;156627.21;;;16.69;77.70
46682;BME280;34101;53.430;-2.224;2022-07-29T05:31:04;156622.50;;;16.67;77.89
46682;BME280;34101;53.430;-2.224;2022-07-29T05:33:32;156629.23;;;16.70;78.05
46682;BME280;34101;53.430;-2.224;2022-07-29T05:35:59;156628.26;;;16.70;78.95
46682;BME280;34101;53.430;-2.224;2022-07-29T05:38:27;156648.63;;;16.78;78.41
46682;BME280;34101;53.430;-2.224;2022-07-29T05:40:56;156637.67;;;16.73;78.05
46682;BME280;34101;53.430;-2.224;2022-07-29T05:43:24;156660.88;;;16.83;78.39
46682;BME280;34101;53.430;-2.224;2022-07-29T05:45:51;156665.34;;;16.84;78.47
46682;BME280;34101;53.430;-2.224;2022-07-29T05:48:19;156673.86;;;16.88;78.46
46682;BME280;34101;53.430;-2.224;2022-07-29T05:50:46;156694.96;;;16.96;78.15
46682;BME280;34101;53.430;-2.224;2022-07-29T05:53:15;156701.61;;;16.99;78.13
46682;BME280;34101;53.430;-2.224;2022-07-29T05:55:42;156722.23;;;17.07;78.00
46682;BME280;34101;53.430;-2.224;2022-07-29T05:58:10;156743.98;;;17.16;78.79
46682;BME280;34101;53.430;-2.224;2022-07-29T06:00:37;156765.08;;;17.24;78.39
46682;BME280;34101;53.430;-2.224;2022-07-29T06:03:04;156764.43;;;17.24;78.12
46682;BME280;34101;53.430;-2.224;2022-07-29T06:05:32;156771.17;;;17.27;77.76
46682;BME280;34101;53.430;-2.224;2022-07-29T06:07:59;156746.41;;;17.17;77.82
46682;BME280;34101;53.430;-2.224;2022-07-29T06:10:27;156736.02;;;17.13;78.74
46682;BME280;34101;53.430;-2.224;2022-07-29T06:12:54;156739.11;;;17.14;78.72
46682;BME280;34101;53.430;-2.224;2022-07-29T06:15:22;156735.13;;;17.12;78.66
46682;BME280;34101;53.430;-2.224;2022-07-29T06:17:49;156759.23;;;17.22;79.08
46682;BME280;34101;53.430;-2.224;2022-07-29T06:20:16;156752.90;;;17.20;78.34
46682;BME280;34101;53.430;-2.224;2022-07-29T06:22:44;156762.97;;;17.24;78.36
46682;BME280;34101;53.430;-2.224;2022-07-29T06:25:11;156774.09;;;17.28;78.15
46682;BME280;34101;53.430;-2.224;2022-07-29T06:27:39;156778.47;;;17.30;78.52
46682;BME280;34101;53.430;-2.224;2022-07-29T06:30:07;156778.47;;;17.30;77.98
46682;BME280;34101;53.430;-2.224;2022-07-29T06:32:35;156790.73;;;17.35;77.97
46682;BME280;34101;53.430;-2.224;2022-07-29T06:35:04;156786.59;;;17.33;78.07
46682;BME280;34101;53.430;-2.224;2022-07-29T06:37:31;156730.83;;;17.11;79.76
46682;BME280;34101;53.430;-2.224;2022-07-29T06:39:59;156630.78;;;16.71;84.22
46682;BME280;34101;53.430;-2.224;2022-07-29T06:42:26;156600.51;;;16.58;88.36
46682;BME280;34101;53.430;-2.224;2022-07-29T06:44:53;156558.49;;;16.42;91.86
46682;BME280;34101;53.430;-2.224;2022-07-29T06:47:21;156521.17;;;16.27;93.16
46682;BME280;34101;53.430;-2.224;2022-07-29T06:49:48;156502.84;;;16.19;96.42
46682;BME280;34101;53.430;-2.224;2022-07-29T06:52:16;156512.65;;;16.23;98.62
46682;BME280;34101;53.430;-2.224;2022-07-29T06:54:43;156482.97;;;16.11;98.88
46682;BME280;34101;53.430;-2.224;2022-07-29T06:57:11;156467.15;;;16.05;99.22
46682;BME280;34101;53.430;-2.224;2022-07-29T06:59:39;156461.88;;;16.03;99.25
46682;BME280;34101;53.430;-2.224;2022-07-29T07:02:06;156485.48;;;16.12;100.00
46682;BME280;34101;53.430;-2.224;2022-07-29T07:04:33;156494.00;;;16.16;99.42
46682;BME280;34101;53.430;-2.224;2022-07-29T07:07:00;156502.43;;;16.19;100.00
46682;BME280;34101;53.430;-2.224;2022-07-29T07:09:28;156527.50;;;16.29;100.00
46682;BME280;34101;53.430;-2.224;2022-07-29T07:11:55;156538.13;;;16.33;100.00
46682;BME280;34101;53.430;-2.224;2022-07-29T07:14:23;156567.90;;;16.45;100.00
46682;BME280;34101;53.430;-2.224;2022-07-29T07:16:50;156562.95;;;16.43;100.00
46682;BME280;34101;53.430;-2.224;2022-07-29T07:19:18;156571.39;;;16.47;100.00
46682;BME280;34101;53.430;-2.224;2022-07-29T07:21:45;156592.32;;;16.55;100.00
46682;BME280;34101;53.430;-2.224;2022-07-29T07:24:13;156602.86;;;16.59;100.00
46682;BME280;34101;53.430;-2.224;2022-07-29T07:26:40;156588.67;;;16.54;100.00
46682;BME280;34101;53.430;-2.224;2022-07-29T07:29:08;156551.75;;;16.39;100.00
46682;BME280;34101;53.430;-2.224;2022-07-29T07:31:36;156502.84;;;16.19;100.00
46682;BME280;34101;53.430;-2.224;2022-07-29T07:34:04;156494.00;;;16.16;100.00
46682;BME280;34101;53.430;-2.224;2022-07-29T07:36:32;156466.26;;;16.05;100.00
46682;BME280;34101;53.430;-2.224;2022-07-29T07:38:59;156458.55;;;16.01;100.00
46682;BME280;34101;53.430;-2.224;2022-07-29T07:41:26;156461.72;;;16.03;100.00
46682;BME280;34101;53.430;-2.224;2022-07-29T07:43:54;156475.18;;;16.08;100.00
46682;BME280;34101;53.430;-2.224;2022-07-29T07:46:21;156518.41;;;16.25;100.00
46682;BME280;34101;53.430;-2.224;2022-07-29T07:48:49;156515.90;;;16.24;100.00
46682;BME280;34101;53.430;-2.224;2022-07-29T07:51:16;156552.40;;;16.39;100.00
46682;BME280;34101;53.430;-2.224;2022-07-29T07:53:44;156562.30;;;16.43;100.00
46682;BME280;34101;53.430;-2.224;2022-07-29T07:56:11;156585.67;;;16.52;100.00
46682;BME280;34101;53.430;-2.224;2022-07-29T07:58:39;156627.53;;;16.69;100.00
46682;BME280;34101;53.430;-2.224;2022-07-29T08:01:07;156668.67;;;16.86;100.00
46682;BME280;34101;53.430;-2.224;2022-07-29T08:03:35;156689.69;;;16.94;100.00
46682;BME280;34101;53.430;-2.224;2022-07-29T08:06:04;156741.30;;;17.15;100.00
46682;BME280;34101;53.430;-2.224;2022-07-29T08:08:31;156763.05;;;17.24;97.56
46682;BME280;34101;53.430;-2.224;2022-07-29T08:10:58;156809.80;;;17.42;96.13
46682;BME280;34101;53.430;-2.224;2022-07-29T08:13:26;156958.37;;;18.02;94.11
46682;BME280;34101;53.430;-2.224;2022-07-29T08:15:54;157304.96;;;19.41;87.43
46682;BME280;34101;53.430;-2.224;2022-07-29T08:18:21;157513.51;;;20.25;80.41
46682;BME280;34101;53.430;-2.224;2022-07-29T08:20:49;157487.99;;;20.14;78.39
46682;BME280;34101;53.430;-2.224;2022-07-29T08:23:16;157451.17;;;20.00;77.17
46682;BME280;34101;53.430;-2.224;2022-07-29T08:25:43;157414.18;;;19.85;76.94
46682;BME280;34101;53.430;-2.224;2022-07-29T08:28:11;157412.64;;;19.84;78.28
46682;BME280;34101;53.430;-2.224;2022-07-29T08:30:38;157448.16;;;19.98;76.78
46682;BME280;34101;53.430;-2.224;2022-07-29T08:33:06;157465.55;;;20.05;77.03
46682;BME280;34101;53.430;-2.224;2022-07-29T08:35:33;157419.63;;;19.87;76.52
46682;BME280;34101;53.430;-2.224;2022-07-29T08:38:01;157385.01;;;19.73;75.06
46682;BME280;34101;53.430;-2.224;2022-07-29T08:40:28;157397.28;;;19.78;74.82
46682;BME280;34101;53.430;-2.224;2022-07-29T08:42:55;157444.42;;;19.97;74.12
46682;BME280;34101;53.430;-2.224;2022-07-29T08:45:23;157380.94;;;19.71;72.86
46682;BME280;34101;53.430;-2.224;2022-07-29T08:47:52;157352.01;;;19.60;72.25
46682;BME280;34101;53.430;-2.224;2022-07-29T08:50:20;157319.75;;;19.47;74.16
46682;BME280;34101;53.430;-2.224;2022-07-29T08:52:49;157301.06;;;19.39;73.85
46682;BME280;34101;53.430;-2.224;2022-07-29T08:55:17;157301.63;;;19.40;74.69
46682;BME280;34101;53.430;-2.224;2022-07-29T08:57:45;157291.31;;;19.35;73.18
46682;BME280;34101;53.430;-2.224;2022-07-29T09:00:12;157263.60;;;19.24;74.45
46682;BME280;34101;53.430;-2.224;2022-07-29T09:02:44;157249.71;;;19.19;74.24
46682;BME280;34101;53.430;-2.224;2022-07-29T09:05:14;157293.26;;;19.36;74.03
46682;BME280;34101;53.430;-2.224;2022-07-29T09:07:42;157326.01;;;19.49;73.08
46682;BME280;34101;53.430;-2.224;2022-07-29T09:10:10;157335.60;;;19.53;72.51
46682;BME280;34101;53.430;-2.224;2022-07-29T09:12:37;157328.20;;;19.50;71.86
46682;BME280;34101;53.430;-2.224;2022-07-29T09:15:05;157318.94;;;19.47;70.90
46682;BME280;34101;53.430;-2.224;2022-07-29T09:17:40;157323.41;;;19.48;71.12
46682;BME280;34101;53.430;-2.224;2022-07-29T09:20:09;157348.76;;;19.59;71.26
46682;BME280;34101;53.430;-2.224;2022-07-29T09:22:37;157377.37;;;19.70;70.18
46682;BME280;34101;53.430;-2.224;2022-07-29T09:25:05;157390.70;;;19.75;69.55
46682;BME280;34101;53.430;-2.224;2022-07-29T09:27:34;157420.77;;;19.87;69.36
46682;BME280;34101;53.430;-2.224;2022-07-29T09:30:04;157391.35;;;19.76;68.89
46682;BME280;34101;53.430;-2.224;2022-07-29T09:32:32;157437.27;;;19.94;68.67
46682;BME280;34101;53.430;-2.224;2022-07-29T09:35:17;157491.65;;;20.16;67.36
46682;BME280;34101;53.430;-2.224;2022-07-29T09:37:45;157564.97;;;20.45;65.96
46682;BME280;34101;53.430;-2.224;2022-07-29T09:40:14;157668.97;;;20.87;65.91
46682;BME280;34101;53.430;-2.224;2022-07-29T09:42:42;157749.40;;;21.19;63.02
46682;BME280;34101;53.430;-2.224;2022-07-29T09:45:10;157803.25;;;21.41;62.07
46682;BME280;34101;53.430;-2.224;2022-07-29T09:47:44;157800.89;;;21.40;61.74
46682;BME280;34101;53.430;-2.224;2022-07-29T09:50:12;157747.12;;;21.18;61.73
46682;BME280;34101;53.430;-2.224;2022-07-29T09:52:46;157713.94;;;21.05;63.24
46682;BME280;34101;53.430;-2.224;2022-07-29T09:55:13;157680.36;;;20.91;63.32
46682;BME280;34101;53.430;-2.224;2022-07-29T09:57:41;157639.37;;;20.75;63.43
46682;BME280;34101;53.430;-2.224;2022-07-29T10:00:11;157614.65;;;20.65;63.16
46682;BME280;34101;53.430;-2.224;2022-07-29T10:02:41;157583.84;;;20.53;63.18
46682;BME280;34101;53.430;-2.224;2022-07-29T10:05:17;157601.07;;;20.60;63.67
46682;BME280;34101;53.430;-2.224;2022-07-29T10:07:46;157606.03;;;20.62;63.23
46682;BME280;34101;53.430;-2.224;2022-07-29T10:10:20;157610.99;;;20.64;63.92
46682;BME280;34101;53.430;-2.224;2022-07-29T10:12:50;157623.76;;;20.69;64.19
46682;BME280;34101;53.430;-2.224;2022-07-29T10:15:18;157645.39;;;20.77;64.42
46682;BME280;34101;53.430;-2.224;2022-07-29T10:17:45;157654.98;;;20.81;63.50
46682;BME280;34101;53.430;-2.224;2022-07-29T10:20:13;157653.76;;;20.81;63.35
46682;BME280;34101;53.430;-2.224;2022-07-29T10:22:40;157685.72;;;20.94;63.31
46682;BME280;34101;53.430;-2.224;2022-07-29T10:25:09;157678.97;;;20.91;62.96
46682;BME280;34101;53.430;-2.224;2022-07-29T10:27:36;157656.12;;;20.82;62.45
46682;BME280;34101;53.430;-2.224;2022-07-29T10:30:05;157663.20;;;20.84;60.53
46682;BME280;34101;53.430;-2.224;2022-07-29T10:32:46;157674.34;;;20.89;60.68
46682;BME280;34101;53.430;-2.224;2022-07-29T10:35:27;157647.50;;;20.78;58.07
46682;BME280;34101;53.430;-2.224;2022-07-29T10:38:17;157654.09;;;20.81;58.11
46682;BME280;34101;53.430;-2.224;2022-07-29T10:40:55;157656.37;;;20.82;58.10
46682;BME280;34101;53.430;-2.224;2022-07-29T10:43:32;157653.68;;;20.81;58.22
46682;BME280;34101;53.430;-2.224;2022-07-29T10:46:01;157632.38;;;20.72;58.48
46682;BME280;34101;53.430;-2.224;2022-07-29T10:48:29;157644.33;;;20.77;58.33
46682;BME280;34101;53.430;-2.224;2022-07-29T10:50:58;157678.57;;;20.91;57.61
46682;BME280;34101;53.430;-2.224;2022-07-29T10:53:46;157705.08;;;21.01;57.63
46682;BME280;34101;53.430;-2.224;2022-07-29T10:56:24;157684.34;;;20.93;59.25
46682;BME280;34101;53.430;-2.224;2022-07-29T10:59:23;157764.37;;;21.25;56.84
46682;BME280;34101;53.430;-2.224;2022-07-29T11:01:52;157788.52;;;21.35;56.83
46682;BME280;34101;53.430;-2.224;2022-07-29T11:04:59;157837.57;;;21.54;56.39
46682;BME280;34101;53.430;-2.224;2022-07-29T11:07:28;157911.93;;;21.84;56.15
46682;BME280;34101;53.430;-2.224;2022-07-29T11:10:28;157923.16;;;21.89;55.66
46682;BME280;34101;53.430;-2.224;2022-07-29T11:12:55;157967.34;;;22.06;55.23
46682;BME280;34101;53.430;-2.224;2022-07-29T11:15:23;157973.44;;;22.09;55.30
46682;BME280;34101;53.430;-2.224;2022-07-29T11:18:07;158048.22;;;22.39;54.29
46682;BME280;34101;53.430;-2.224;2022-07-29T11:20:38;158098.52;;;22.59;53.56
46682;BME280;34101;53.430;-2.224;2022-07-29T11:23:23;158158.92;;;22.83;53.13
46682;BME280;34101;53.430;-2.224;2022-07-29T11:26:23;158151.67;;;22.80;52.19
46682;BME280;34101;53.430;-2.224;2022-07-29T11:28:54;158080.70;;;22.52;53.19
46682;BME280;34101;53.430;-2.224;2022-07-29T11:31:34;158042.85;;;22.36;53.58
46682;BME280;34101;53.430;-2.224;2022-07-29T11:34:19;157991.10;;;22.16;53.47
46682;BME280;34101;53.430;-2.224;2022-07-29T11:37:21;157993.13;;;22.17;53.83
46682;BME280;34101;53.430;-2.224;2022-07-29T11:40:13;157930.64;;;21.92;54.69
46682;BME280;34101;53.430;-2.224;2022-07-29T11:42:44;157861.90;;;21.64;55.39
46682;BME280;34101;53.430;-2.224;2022-07-29T11:45:14;157844.08;;;21.57;55.80
46682;BME280;34101;53.430;-2.224;2022-07-29T11:47:53;157824.40;;;21.49;57.38
46682;BME280;34101;53.430;-2.224;2022-07-29T11:50:31;157608.47;;;20.63;63.46
46682;BME280;34101;53.430;-2.224;2022-07-29T11:52:58;157532.54;;;20.32;65.77
46682;BME280;34101;53.430;-2.224;2022-07-29T11:55:27;157535.22;;;20.33;65.39
46682;BME280;34101;53.430;-2.224;2022-07-29T11:57:55;157570.83;;;20.47;65.50
46682;BME280;34101;53.430;-2.224;2022-07-29T12:00:26;157654.98;;;20.81;64.52
46682;BME280;34101;53.430;-2.224;2022-07-29T12:02:54;157755.66;;;21.22;62.95
46682;BME280;34101;53.430;-2.224;2022-07-29T12:05:31;157873.53;;;21.69;63.35
46682;BME280;34101;53.430;-2.224;2022-07-29T12:08:11;157886.95;;;21.74;60.61
46682;BME280;34101;53.430;-2.224;2022-07-29T12:10:40;157923.16;;;21.89;60.37
46682;BME280;34101;53.430;-2.224;2022-07-29T12:13:08;157893.46;;;21.77;59.80
46682;BME280;34101;53.430;-2.224;2022-07-29T12:15:36;157932.43;;;21.92;59.58
46682;BME280;34101;53.430;-2.224;2022-07-29T12:18:11;157978.49;;;22.11;58.63
46682;BME280;34101;53.430;-2.224;2022-07-29T12:20:39;157988.01;;;22.15;58.05
46682;BME280;34101;53.430;-2.224;2022-07-29T12:23:07;158005.75;;;22.22;57.62
46682;BME280;34101;53.430;-2.224;2022-07-29T12:25:35;158065.07;;;22.45;57.11
46682;BME280;34101;53.430;-2.224;2022-07-29T12:28:05;158114.96;;;22.65;56.66
46682;BME280;34101;53.430;-2.224;2022-07-29T12:30:36;158163.23;;;22.85;55.76
46682;BME280;34101;53.430;-2.224;2022-07-29T12:33:11;158183.34;;;22.93;56.27
46682;BME280;34101;53.430;-2.224;2022-07-29T12:35:39;158200.27;;;22.99;55.57
46682;BME280;34101;53.430;-2.224;2022-07-29T12:38:06;158148.33;;;22.79;55.11
46682;BME280;34101;53.430;-2.224;2022-07-29T12:40:35;158130.59;;;22.72;55.49
46682;BME280;34101;53.430;-2.224;2022-07-29T12:43:08;158124.00;;;22.69;55.91
46682;BME280;34101;53.430;-2.224;2022-07-29T12:45:36;158173.81;;;22.89;56.70
46682;BME280;34101;53.430;-2.224;2022-07-29T12:48:04;158218.34;;;23.07;54.76
46682;BME280;34101;53.430;-2.224;2022-07-29T12:50:32;158213.70;;;23.05;54.01
46682;BME280;34101;53.430;-2.224;2022-07-29T12:53:15;158177.23;;;22.90;54.35